Terminal Aerodrome Forecast
Issued by NWS

Home | Current Version | Previous Version | Text Only | Print | Product List | Glossary On
Versions: 1 2 3 4 5 6 7 8 9 10 11 12 13
639
FTUS45 KFGZ 260907 AAA
TAFPRC
TAF AMD
KPRC 260907Z 2609/2706 21005KT P6SM SCT040 OVC060
      TEMPO 2615/2618 6SM -SN BKN040 OVC070
     FM262000 20010KT P6SM OVC040=

USA.gov is the U.S. government's official web portal to all federal, state and local government web resources and services.